createdAt,value
2018-10-05T00:02:26.579Z,100890.84
2018-10-05T00:04:55.771Z,100893.64
2018-10-05T00:07:24.913Z,100889.56
2018-10-05T00:09:54.321Z,100892.45
2018-10-05T00:12:23.372Z,100896.38
2018-10-05T00:14:52.553Z,100899.18
2018-10-05T00:17:21.542Z,100889.14
2018-10-05T00:19:51.033Z,100897.75
2018-10-05T00:22:20.188Z,100896.16
2018-10-05T00:24:49.286Z,100884.94
2018-10-05T00:27:18.382Z,100880.64
2018-10-05T00:29:47.677Z,100883.69
2018-10-05T00:32:16.734Z,100890.17
2018-10-05T00:34:45.910Z,100881.16
2018-10-05T00:37:15.389Z,100885.22
2018-10-05T00:39:44.522Z,100876.67
2018-10-05T00:42:13.813Z,100872.31
2018-10-05T00:44:42.992Z,100874.49
2018-10-05T00:47:12.075Z,100872.61
2018-10-05T00:49:41.146Z,100878.80
2018-10-05T00:52:10.517Z,100878.28
2018-10-05T00:54:39.542Z,100872.59
2018-10-05T00:57:08.658Z,100875.70
2018-10-05T00:59:37.788Z,100875.64
2018-10-05T01:02:07.011Z,100876.44
2018-10-05T01:04:36.083Z,100864.48
2018-10-05T01:07:05.373Z,100874.55
2018-10-05T01:09:34.481Z,100868.80
2018-10-05T01:12:03.844Z,100875.52
2018-10-05T01:14:32.873Z,100875.47
2018-10-05T01:17:01.881Z,100871.09
2018-10-05T01:19:30.922Z,100883.91
2018-10-05T01:21:59.973Z,100880.33
2018-10-05T01:24:29.117Z,100881.45
2018-10-05T01:26:58.156Z,100883.66
2018-10-05T01:29:27.211Z,100882.33
2018-10-05T01:31:56.292Z,100882.99
2018-10-05T01:34:25.455Z,100881.72
2018-10-05T01:36:54.507Z,100873.41
2018-10-05T01:39:23.546Z,100879.55
2018-10-05T01:41:52.585Z,100885.80
2018-10-05T01:44:21.708Z,100883.21
2018-10-05T01:46:50.639Z,100883.62
2018-10-05T01:49:19.839Z,100886.05
2018-10-05T01:51:48.757Z,100889.27
2018-10-05T01:54:17.832Z,100887.30
2018-10-05T01:56:46.920Z,100900.85
2018-10-05T01:59:16.244Z,100900.52
2018-10-05T02:01:45.173Z,100905.41
2018-10-05T02:04:14.334Z,100906.38
2018-10-05T02:06:43.494Z,100907.23
2018-10-05T02:09:12.565Z,100905.46
2018-10-05T02:11:41.583Z,100908.61
2018-10-05T02:14:10.715Z,100905.56
2018-10-05T02:16:39.821Z,100908.30
2018-10-05T02:19:09.009Z,100902.72
2018-10-05T02:21:38.394Z,100909.73
2018-10-05T02:24:08.466Z,100904.77
2018-10-05T02:26:37.873Z,100901.92
2018-10-05T02:29:06.945Z,100903.66
2018-10-05T02:31:36.088Z,100900.30
2018-10-05T02:34:05.156Z,100910.70
2018-10-05T02:36:34.197Z,100910.30
2018-10-05T02:39:03.363Z,100911.85
2018-10-05T02:41:32.587Z,100909.44
2018-10-05T02:44:01.672Z,100910.75
2018-10-05T02:46:30.860Z,100909.94
2018-10-05T02:49:00.045Z,100910.53
2018-10-05T02:51:29.134Z,100914.73
2018-10-05T02:53:58.264Z,100910.92
2018-10-05T02:56:27.620Z,100916.61
2018-10-05T02:58:56.703Z,100918.11
2018-10-05T03:01:36.854Z,100910.76
2018-10-05T03:04:05.864Z,100918.45
2018-10-05T03:06:34.889Z,100914.30
2018-10-05T03:09:05.369Z,100919.80
2018-10-05T03:11:34.328Z,100935.20
2018-10-05T03:14:03.457Z,100932.44
2018-10-05T03:16:32.551Z,100928.13
2018-10-05T03:19:01.729Z,100939.30
2018-10-05T03:21:30.712Z,100940.34
2018-10-05T03:23:59.827Z,100948.82
2018-10-05T03:26:28.983Z,100951.91
2018-10-05T03:28:58.804Z,100953.72
2018-10-05T03:31:28.145Z,100955.00
2018-10-05T03:33:57.224Z,100957.14
2018-10-05T03:36:26.420Z,100960.38
2018-10-05T03:38:55.941Z,100965.24
2018-10-05T03:41:24.911Z,100954.91
2018-10-05T03:43:53.931Z,100960.64
2018-10-05T03:46:22.993Z,100966.28
2018-10-05T03:48:51.992Z,100963.31
2018-10-05T03:51:21.034Z,100959.45
2018-10-05T03:53:50.469Z,100956.07
2018-10-05T03:56:19.395Z,100960.31
2018-10-05T03:58:48.333Z,100951.95
2018-10-05T04:01:17.926Z,100955.62
2018-10-05T04:03:47.056Z,100949.03
2018-10-05T04:06:16.038Z,100950.43
2018-10-05T04:08:45.206Z,100951.91
2018-10-05T04:11:14.129Z,100949.94
2018-10-05T04:13:43.114Z,100960.17
2018-10-05T04:16:12.505Z,100953.27
2018-10-05T04:18:41.676Z,100955.56
2018-10-05T04:21:10.712Z,100956.01
2018-10-05T04:23:40.165Z,100957.33
2018-10-05T04:26:09.198Z,100963.38
2018-10-05T04:28:38.256Z,100966.56
2018-10-05T04:31:07.319Z,100964.80
2018-10-05T04:33:36.531Z,100958.05
2018-10-05T04:36:05.595Z,100957.67
2018-10-05T04:38:34.798Z,100959.08
2018-10-05T04:41:03.849Z,100960.36
2018-10-05T04:43:32.797Z,100963.86
2018-10-05T04:46:02.224Z,100963.73
2018-10-05T04:48:31.391Z,100967.47
2018-10-05T04:51:00.489Z,100969.39
2018-10-05T04:53:29.851Z,100977.44
2018-10-05T04:55:58.777Z,100976.11
2018-10-05T04:58:27.713Z,100980.84
2018-10-05T05:00:56.945Z,100980.27
2018-10-05T05:03:25.899Z,100981.77
2018-10-05T05:12:40.266Z,100986.59
2018-10-05T05:15:09.174Z,100988.51
2018-10-05T05:17:38.003Z,100987.33
2018-10-05T05:20:07.217Z,101001.16
2018-10-05T05:22:36.338Z,101000.64
2018-10-05T05:25:05.392Z,100999.33
2018-10-05T05:27:34.815Z,101001.01
2018-10-05T05:30:03.990Z,101007.47
2018-10-05T05:32:33.100Z,101009.87
2018-10-05T05:35:02.118Z,101013.95
2018-10-05T05:37:30.908Z,101013.30
2018-10-05T05:39:59.745Z,101015.38
2018-10-05T05:42:28.627Z,101017.41
2018-10-05T05:44:57.407Z,101022.40
2018-10-05T05:47:26.448Z,101025.39
2018-10-05T05:49:55.484Z,101031.34
2018-10-05T05:52:24.363Z,101024.94
2018-10-05T05:54:53.276Z,101025.09
2018-10-05T05:57:22.673Z,101033.20
2018-10-05T05:59:51.545Z,101026.45
2018-10-05T06:02:20.473Z,101033.09
2018-10-05T06:04:49.512Z,101032.81
2018-10-05T06:07:18.540Z,101036.00
2018-10-05T06:09:47.491Z,101034.45
2018-10-05T06:12:16.560Z,101041.36
2018-10-05T06:14:45.465Z,101053.44
2018-10-05T06:17:14.469Z,101052.28
2018-10-05T06:19:43.477Z,101051.27
2018-10-05T06:22:13.814Z,101049.35
2018-10-05T06:24:42.604Z,101052.30
2018-10-05T06:27:11.843Z,101046.45
2018-10-05T06:29:40.914Z,101050.41
2018-10-05T06:32:09.712Z,101050.63
2018-10-05T06:34:38.789Z,101046.30
2018-10-05T06:37:07.787Z,101048.25
2018-10-05T06:39:36.721Z,101053.81
2018-10-05T06:42:05.931Z,101051.91
2018-10-05T06:44:34.893Z,101051.72
2018-10-05T06:47:03.920Z,101060.23
2018-10-05T06:49:33.036Z,101060.38
2018-10-05T06:52:02.159Z,101055.10
2018-10-05T06:54:31.113Z,101057.09
2018-10-05T06:57:00.521Z,101063.04
2018-10-05T06:59:29.430Z,101066.69
2018-10-05T07:01:58.465Z,101065.45
2018-10-05T07:04:27.432Z,101059.41
2018-10-05T07:06:56.397Z,101070.02
2018-10-05T07:09:25.471Z,101069.58
2018-10-05T07:11:54.694Z,101067.37
2018-10-05T07:14:23.681Z,101072.39
2018-10-05T07:16:52.681Z,101062.35
2018-10-05T07:19:22.124Z,101059.67
2018-10-05T07:21:51.008Z,101054.70
2018-10-05T07:24:19.909Z,101063.48
2018-10-05T07:26:48.816Z,101060.20
2018-10-05T07:29:17.668Z,101057.90
2018-10-05T07:31:46.560Z,101049.41
2018-10-05T07:34:15.863Z,101047.17
2018-10-05T07:36:44.882Z,101046.69
2018-10-05T07:39:13.760Z,101050.91
2018-10-05T07:41:42.705Z,101047.50
2018-10-05T07:44:11.567Z,101048.39
2018-10-05T07:46:40.471Z,101042.57
2018-10-05T07:49:09.793Z,101049.85
2018-10-05T07:51:38.749Z,101050.53
2018-10-05T07:54:07.661Z,101047.42
2018-10-05T07:56:36.707Z,101047.82
2018-10-05T07:59:05.704Z,101037.63
2018-10-05T08:01:34.733Z,101045.11
2018-10-05T08:04:03.684Z,101039.96
2018-10-05T08:06:32.680Z,101042.08
2018-10-05T08:09:01.531Z,101042.27
2018-10-05T08:11:30.406Z,101043.73
2018-10-05T08:13:59.222Z,101037.89
2018-10-05T08:16:28.088Z,101035.14
2018-10-05T08:18:57.003Z,101038.05
2018-10-05T08:21:26.042Z,101034.71
2018-10-05T08:23:54.970Z,101026.56
2018-10-05T08:26:23.975Z,101026.87
2018-10-05T08:28:52.981Z,101020.22
2018-10-05T08:31:22.174Z,101022.50
2018-10-05T08:33:51.110Z,101015.89
2018-10-05T08:36:20.140Z,101011.33
2018-10-05T08:38:49.150Z,101008.20
2018-10-05T08:41:18.738Z,101010.02
2018-10-05T08:43:47.618Z,101003.53
2018-10-05T08:46:16.637Z,101008.77
2018-10-05T08:48:45.743Z,101006.95
2018-10-05T08:51:14.818Z,101002.95
2018-10-05T08:53:43.856Z,100999.91
2018-10-05T08:56:12.869Z,101001.07
2018-10-05T08:58:41.732Z,100996.25
2018-10-05T09:01:10.662Z,100991.67
2018-10-05T09:03:39.805Z,100987.94
2018-10-05T09:06:08.763Z,100986.42
2018-10-05T09:08:37.741Z,100977.38
2018-10-05T09:11:06.688Z,100985.33
2018-10-05T09:13:35.548Z,100987.06
2018-10-05T09:16:04.481Z,100985.92
2018-10-05T09:18:33.681Z,100982.78
2018-10-05T09:21:02.587Z,100971.02
2018-10-05T09:23:31.614Z,100968.80
2018-10-05T09:26:00.908Z,100963.72
2018-10-05T09:28:29.724Z,100974.59
2018-10-05T09:30:58.756Z,100967.21
2018-10-05T09:33:27.967Z,100956.36
2018-10-05T09:35:56.929Z,100959.67
2018-10-05T09:38:25.824Z,100958.90
2018-10-05T09:40:54.801Z,100953.38
2018-10-05T09:43:23.824Z,100957.12
2018-10-05T09:45:52.800Z,100953.56
2018-10-05T09:48:21.695Z,100950.88
2018-10-05T09:50:50.499Z,100945.28
2018-10-05T09:53:19.482Z,100946.72
2018-10-05T09:55:48.792Z,100940.39
2018-10-05T09:58:17.793Z,100945.87
2018-10-05T10:00:51.891Z,100936.69
2018-10-05T10:03:25.943Z,100940.42
2018-10-05T10:05:54.888Z,100937.53
2018-10-05T10:08:23.952Z,100939.36
2018-10-05T10:10:53.101Z,100940.02
2018-10-05T10:13:22.908Z,100929.53
2018-10-05T10:15:51.834Z,100928.79
2018-10-05T10:18:21.005Z,100927.70
2018-10-05T10:20:50.096Z,100918.97
2018-10-05T10:23:19.189Z,100915.17
2018-10-05T10:25:48.080Z,100909.55
2018-10-05T10:28:17.546Z,100906.42
2018-10-05T10:30:50.814Z,100902.83
2018-10-05T10:33:19.862Z,100898.02
2018-10-05T10:35:48.808Z,100890.28
2018-10-05T10:38:17.835Z,100889.08
2018-10-05T10:40:47.562Z,100883.19
2018-10-05T10:43:16.581Z,100890.55
2018-10-05T10:45:46.303Z,100884.26
2018-10-05T10:48:15.983Z,100875.50
2018-10-05T10:50:44.820Z,100871.72
2018-10-05T10:53:14.878Z,100860.08
2018-10-05T10:55:44.185Z,100862.22
2018-10-05T10:58:13.245Z,100862.06
2018-10-05T11:00:42.308Z,100859.27
2018-10-05T11:03:11.862Z,100847.80
2018-10-05T11:05:40.907Z,100848.98
2018-10-05T11:08:10.018Z,100842.57
2018-10-05T11:10:39.676Z,100839.69
2018-10-05T11:13:08.797Z,100832.09
2018-10-05T11:15:37.831Z,100831.50
2018-10-05T11:18:07.289Z,100821.09
2018-10-05T11:20:36.219Z,100829.94
2018-10-05T11:23:05.299Z,100824.31
2018-10-05T11:25:34.608Z,100817.08
2018-10-05T11:28:03.624Z,100820.34
2018-10-05T11:30:32.666Z,100817.85
2018-10-05T11:33:02.025Z,100816.63
2018-10-05T11:35:32.650Z,100812.95
2018-10-05T11:38:13.943Z,100797.00
2018-10-05T11:40:43.236Z,100800.37
2018-10-05T11:43:12.469Z,100798.03
2018-10-05T11:45:41.478Z,100798.09
2018-10-05T11:48:10.537Z,100789.55
2018-10-05T11:50:39.869Z,100790.52
2018-10-05T11:53:08.932Z,100785.75
2018-10-05T11:55:37.818Z,100786.61
2018-10-05T11:58:09.690Z,100790.66
2018-10-05T12:00:40.915Z,100780.09
2018-10-05T12:03:12.353Z,100774.60
2018-10-05T12:05:42.167Z,100770.33
2018-10-05T12:08:13.790Z,100770.22
2018-10-05T12:10:44.871Z,100767.42
2018-10-05T12:13:13.962Z,100767.17
2018-10-05T12:15:42.927Z,100763.81
2018-10-05T12:18:12.056Z,100769.11
2018-10-05T12:20:41.316Z,100767.58
2018-10-05T12:23:10.383Z,100763.84
2018-10-05T12:25:39.470Z,100763.39
2018-10-05T12:28:08.558Z,100762.00
2018-10-05T12:30:37.634Z,100760.05
2018-10-05T12:33:06.867Z,100761.27
2018-10-05T12:35:36.128Z,100757.23
2018-10-05T12:38:05.281Z,100753.42
2018-10-05T12:40:34.284Z,100753.62
2018-10-05T12:43:03.855Z,100755.36
2018-10-05T12:45:32.883Z,100760.98
2018-10-05T12:48:01.920Z,100755.85
2018-10-05T12:50:31.044Z,100761.95
2018-10-05T12:53:00.097Z,100753.98
2018-10-05T12:55:29.275Z,100743.85
2018-10-05T12:57:58.426Z,100747.12
2018-10-05T13:00:27.388Z,100749.02
2018-10-05T13:02:56.496Z,100747.15
2018-10-05T13:05:26.610Z,100741.38
2018-10-05T13:07:55.792Z,100743.77
2018-10-05T13:10:24.717Z,100744.62
2018-10-05T13:12:53.727Z,100743.13
2018-10-05T13:15:22.817Z,100741.53
2018-10-05T13:17:51.856Z,100739.45
2018-10-05T13:20:21.279Z,100734.94
2018-10-05T13:22:51.095Z,100737.11
2018-10-05T13:25:20.207Z,100738.82
2018-10-05T13:27:49.762Z,100737.56
2018-10-05T13:30:18.762Z,100733.39
2018-10-05T13:32:47.832Z,100731.55
2018-10-05T13:35:17.253Z,100719.67
2018-10-05T13:37:46.269Z,100718.83
2018-10-05T13:40:15.261Z,100723.12
2018-10-05T13:42:44.654Z,100715.80
2018-10-05T13:45:13.752Z,100718.97
2018-10-05T13:47:42.709Z,100722.15
2018-10-05T13:50:13.455Z,100709.57
2018-10-05T13:52:42.403Z,100713.11
2018-10-05T13:55:11.748Z,100708.72
2018-10-05T13:57:40.827Z,100708.72
2018-10-05T14:00:09.981Z,100704.91
2018-10-05T14:02:38.953Z,100708.08
2018-10-05T14:05:08.025Z,100702.59
2018-10-05T14:07:36.915Z,100699.32
2018-10-05T14:10:06.102Z,100702.49
2018-10-05T14:12:35.289Z,100697.85
2018-10-05T14:15:04.296Z,100705.03
2018-10-05T14:17:33.191Z,100707.84
2018-10-05T14:20:02.209Z,100702.83
2018-10-05T14:22:31.294Z,100699.38
2018-10-05T14:25:00.123Z,100699.05
2018-10-05T14:27:29.087Z,100704.39
2018-10-05T14:29:58.391Z,100701.00
2018-10-05T14:32:27.321Z,100697.88
2018-10-05T14:34:56.449Z,100696.99
2018-10-05T14:37:25.484Z,100694.09
2018-10-05T14:39:54.385Z,100691.66
2018-10-05T14:42:23.736Z,100696.91
2018-10-05T14:44:52.979Z,100696.58
2018-10-05T14:47:22.637Z,100687.02
2018-10-05T14:49:51.997Z,100687.51
2018-10-05T14:52:24.026Z,100681.25
2018-10-05T14:54:54.430Z,100677.10
2018-10-05T14:57:23.854Z,100684.54
2018-10-05T14:59:54.037Z,100688.32
2018-10-05T15:02:23.150Z,100690.11
2018-10-05T15:04:56.258Z,100690.08
2018-10-05T15:07:33.976Z,100684.08
2018-10-05T15:10:04.199Z,100687.87
2018-10-05T15:12:33.392Z,100685.42
2018-10-05T15:15:02.381Z,100686.85
2018-10-05T15:17:31.355Z,100687.45
2018-10-05T15:20:00.365Z,100696.11
2018-10-05T15:22:29.400Z,100693.34
2018-10-05T15:24:58.927Z,100685.78
2018-10-05T15:27:28.488Z,100682.68
2018-10-05T15:29:57.435Z,100682.97
2018-10-05T15:32:26.634Z,100682.80
2018-10-05T15:34:55.659Z,100683.94
2018-10-05T15:37:24.937Z,100686.45
2018-10-05T15:39:54.452Z,100693.14
2018-10-05T15:42:23.504Z,100692.94
2018-10-05T15:44:52.571Z,100687.27
2018-10-05T15:47:21.809Z,100688.75
2018-10-05T15:49:50.705Z,100692.03
2018-10-05T15:52:19.666Z,100696.24
2018-10-05T15:54:49.066Z,100689.82
2018-10-05T15:57:18.060Z,100696.08
2018-10-05T15:59:47.040Z,100683.59
2018-10-05T16:02:15.983Z,100689.44
2018-10-05T16:04:44.825Z,100696.06
2018-10-05T16:07:13.749Z,100692.52
2018-10-05T16:09:43.208Z,100692.00
2018-10-05T16:12:12.131Z,100694.13
2018-10-05T16:14:41.200Z,100697.13
2018-10-05T16:17:10.485Z,100698.39
2018-10-05T16:19:39.384Z,100701.31
2018-10-05T16:22:08.385Z,100697.89
2018-10-05T16:24:40.580Z,100699.34
2018-10-05T16:27:10.242Z,100704.64
2018-10-05T16:29:39.441Z,100706.27
2018-10-05T16:32:10.584Z,100713.28
2018-10-05T16:34:39.551Z,100711.11
2018-10-05T16:37:08.629Z,100707.61
2018-10-05T16:39:38.022Z,100710.73
2018-10-05T16:42:06.986Z,100722.23
2018-10-05T16:44:35.861Z,100722.15
2018-10-05T16:47:05.101Z,100723.40
2018-10-05T16:49:34.150Z,100727.48
2018-10-05T16:52:03.359Z,100723.17
2018-10-05T16:54:33.126Z,100724.80
2018-10-05T16:57:02.965Z,100732.53
2018-10-05T16:59:32.009Z,100731.94
2018-10-05T17:02:01.274Z,100731.16
2018-10-05T17:04:30.209Z,100727.31
2018-10-05T17:06:59.324Z,100735.52
2018-10-05T17:09:28.346Z,100739.69
2018-10-05T17:11:57.322Z,100740.89
2018-10-05T17:14:26.420Z,100739.14
2018-10-05T17:16:55.451Z,100739.05
2018-10-05T17:19:24.493Z,100737.29
2018-10-05T17:21:54.485Z,100741.87
2018-10-05T17:24:23.823Z,100733.33
2018-10-05T17:26:52.877Z,100737.17
2018-10-05T17:29:22.253Z,100735.14
2018-10-05T17:31:51.579Z,100741.77
2018-10-05T17:34:20.557Z,100737.58
2018-10-05T17:36:49.662Z,100744.53
2018-10-05T17:39:19.058Z,100751.72
2018-10-05T17:41:48.047Z,100751.05
2018-10-05T17:44:17.093Z,100756.29
2018-10-05T17:46:46.245Z,100748.44
2018-10-05T17:49:15.291Z,100754.20
2018-10-05T17:51:44.461Z,100751.07
2018-10-05T17:54:13.561Z,100750.11
2018-10-05T17:56:42.769Z,100756.63
2018-10-05T17:59:11.934Z,100760.36
2018-10-05T18:01:40.999Z,100761.84
2018-10-05T18:04:10.457Z,100762.48
2018-10-05T18:06:40.013Z,100762.34
2018-10-05T18:09:09.034Z,100775.19
2018-10-05T18:11:38.720Z,100775.06
2018-10-05T18:14:07.735Z,100773.31
2018-10-05T18:16:36.839Z,100781.83
2018-10-05T18:19:06.788Z,100778.45
2018-10-05T18:21:35.902Z,100781.30
2018-10-05T18:24:05.446Z,100793.46
2018-10-05T18:26:34.894Z,100792.22
2018-10-05T18:29:03.996Z,100794.67
2018-10-05T18:31:33.020Z,100794.42
2018-10-05T18:34:02.465Z,100794.13
2018-10-05T18:36:32.393Z,100792.80
2018-10-05T18:39:01.449Z,100792.34
2018-10-05T18:41:35.183Z,100790.29
2018-10-05T18:44:04.343Z,100789.68
2018-10-05T18:46:33.560Z,100794.84
2018-10-05T18:49:04.066Z,100795.86
2018-10-05T18:51:33.105Z,100794.86
2018-10-05T18:54:02.645Z,100800.39
2018-10-05T18:56:42.715Z,100812.84
2018-10-05T18:59:11.700Z,100806.67
2018-10-05T19:01:40.934Z,100806.34
2018-10-05T19:04:10.230Z,100804.48
2018-10-05T19:06:39.407Z,100807.14
2018-10-05T19:09:09.033Z,100812.84
2018-10-05T19:11:38.494Z,100812.92
2018-10-05T19:14:07.572Z,100810.81
2018-10-05T19:16:36.565Z,100806.90
2018-10-05T19:19:06.824Z,100811.67
2018-10-05T19:21:36.285Z,100802.97
2018-10-05T19:24:05.297Z,100806.17
2018-10-05T19:26:34.629Z,100813.95
2018-10-05T19:29:03.953Z,100816.53
2018-10-05T19:31:32.957Z,100814.65
2018-10-05T19:34:02.346Z,100815.64
2018-10-05T19:36:31.297Z,100827.44
2018-10-05T19:39:00.348Z,100842.98
2018-10-05T19:41:29.492Z,100828.77
2018-10-05T19:43:58.432Z,100832.69
2018-10-05T19:46:27.443Z,100839.30
2018-10-05T19:48:56.348Z,100832.23
2018-10-05T19:51:25.456Z,100833.07
2018-10-05T19:53:54.369Z,100835.86
2018-10-05T19:56:23.408Z,100834.66
2018-10-05T19:58:52.483Z,100835.48
2018-10-05T20:01:21.708Z,100837.28
2018-10-05T20:03:50.776Z,100837.05
2018-10-05T20:06:19.896Z,100840.64
2018-10-05T20:08:49.025Z,100843.30
2018-10-05T20:11:18.385Z,100845.84
2018-10-05T20:13:47.383Z,100849.56
2018-10-05T20:16:16.410Z,100854.56
2018-10-05T20:18:45.404Z,100846.94
2018-10-05T20:21:14.441Z,100847.75
2018-10-05T20:23:43.520Z,100845.98
2018-10-05T20:26:12.611Z,100841.09
2018-10-05T20:28:41.666Z,100842.08
2018-10-05T20:31:10.568Z,100842.50
2018-10-05T20:33:39.999Z,100844.64
2018-10-05T20:36:09.085Z,100845.20
2018-10-05T20:38:38.222Z,100838.39
2018-10-05T20:41:07.188Z,100842.66
2018-10-05T20:43:36.511Z,100840.69
2018-10-05T20:46:05.668Z,100836.50
2018-10-05T20:48:35.179Z,100842.28
2018-10-05T20:51:04.198Z,100831.28
2018-10-05T20:53:33.255Z,100832.61
2018-10-05T20:56:02.869Z,100832.36
2018-10-05T20:58:31.970Z,100837.84
2018-10-05T21:01:01.001Z,100843.22
2018-10-05T21:03:30.042Z,100839.59
2018-10-05T21:05:59.290Z,100829.08
2018-10-05T21:08:28.569Z,100824.05
2018-10-05T21:10:58.020Z,100827.58
2018-10-05T21:13:27.038Z,100822.58
2018-10-05T21:15:56.021Z,100824.61
2018-10-05T21:18:25.305Z,100826.60
2018-10-05T21:20:54.320Z,100822.69
2018-10-05T21:23:23.292Z,100821.27
2018-10-05T21:25:52.526Z,100819.38
2018-10-05T21:28:21.594Z,100827.56
2018-10-05T21:30:50.702Z,100827.50
2018-10-05T21:33:19.849Z,100827.03
2018-10-05T21:35:48.735Z,100824.72
2018-10-05T21:38:17.783Z,100828.98
2018-10-05T21:40:46.825Z,100828.39
2018-10-05T21:43:16.032Z,100827.17
2018-10-05T21:45:44.949Z,100829.02
2018-10-05T21:48:13.965Z,100829.55
2018-10-05T21:50:43.002Z,100827.65
2018-10-05T21:53:12.006Z,100833.02
2018-10-05T21:55:41.137Z,100834.87
2018-10-05T21:58:10.168Z,100834.47
2018-10-05T22:00:39.987Z,100833.77
2018-10-05T22:03:09.578Z,100830.84
2018-10-05T22:05:38.865Z,100834.23
2018-10-05T22:08:07.856Z,100831.55
2018-10-05T22:10:36.861Z,100829.30
2018-10-05T22:13:05.819Z,100821.84
2018-10-05T22:15:34.948Z,100826.25
2018-10-05T22:18:04.351Z,100821.48
2018-10-05T22:20:33.300Z,100822.86
2018-10-05T22:23:02.379Z,100822.77
2018-10-05T22:25:31.370Z,100822.92
2018-10-05T22:28:00.352Z,100820.47
2018-10-05T22:30:29.344Z,100812.58
2018-10-05T22:32:58.450Z,100822.77
2018-10-05T22:35:27.473Z,100823.36
2018-10-05T22:37:56.912Z,100821.52
2018-10-05T22:40:26.185Z,100822.21
2018-10-05T22:42:55.274Z,100830.98
2018-10-05T22:45:24.200Z,100838.55
2018-10-05T22:47:53.467Z,100842.11
2018-10-05T22:50:22.506Z,100839.41
2018-10-05T22:52:51.506Z,100836.77
2018-10-05T22:55:20.835Z,100843.21
2018-10-05T22:57:49.962Z,100847.88
2018-10-05T23:00:19.008Z,100850.51
2018-10-05T23:02:48.425Z,100847.63
2018-10-05T23:05:17.451Z,100854.25
2018-10-05T23:07:46.468Z,100845.88
2018-10-05T23:10:15.757Z,100850.97
2018-10-05T23:12:44.953Z,100853.56
2018-10-05T23:15:13.870Z,100857.87
2018-10-05T23:17:42.891Z,100859.05
2018-10-05T23:20:11.845Z,100864.52
2018-10-05T23:22:40.900Z,100854.72
2018-10-05T23:25:09.951Z,100852.33
2018-10-05T23:27:39.000Z,100854.36
2018-10-05T23:30:08.161Z,100855.68
2018-10-05T23:32:37.399Z,100853.20
2018-10-05T23:35:06.632Z,100848.95
2018-10-05T23:37:35.648Z,100853.38
2018-10-05T23:40:05.089Z,100854.37
2018-10-05T23:42:34.177Z,100850.69
2018-10-05T23:45:03.256Z,100850.06
2018-10-05T23:47:32.886Z,100851.98
2018-10-05T23:50:01.852Z,100854.61
2018-10-05T23:52:45.024Z,100854.45
2018-10-05T23:55:14.059Z,100851.05
2018-10-05T23:57:43.563Z,100845.94
